createdAt,value
2018-03-16T00:00:10.679Z,8.20
2018-03-16T00:02:40.580Z,8.20
2018-03-16T00:05:11.308Z,8.20
2018-03-16T00:07:39.932Z,8.20
2018-03-16T00:31:51.121Z,5.30
2018-03-16T00:34:21.372Z,8.00
2018-03-16T00:36:51.709Z,8.00
2018-03-16T00:39:25.289Z,8.00
2018-03-16T00:41:59.907Z,8.00
2018-03-16T00:44:27.717Z,8.00
2018-03-16T00:46:56.031Z,7.90
2018-03-16T00:49:24.628Z,7.90
2018-03-16T00:51:53.765Z,7.90
2018-03-16T00:54:21.676Z,7.80
2018-03-16T00:56:49.606Z,7.90
2018-03-16T00:59:20.640Z,7.90
2018-03-16T01:01:48.398Z,7.90
2018-03-16T01:04:16.176Z,7.90
2018-03-16T01:06:44.113Z,7.90
2018-03-16T01:09:16.938Z,7.80
2018-03-16T01:11:46.437Z,7.80
2018-03-16T01:14:18.155Z,7.80
2018-03-16T01:16:46.777Z,7.80
2018-03-16T01:19:15.943Z,7.80
2018-03-16T01:21:46.058Z,7.90
2018-03-16T01:24:18.679Z,7.90
2018-03-16T01:26:46.387Z,7.80
2018-03-16T01:29:15.157Z,7.80
2018-03-16T01:31:44.112Z,7.90
2018-03-16T01:34:15.736Z,7.90
2018-03-16T01:36:48.049Z,8.00
2018-03-16T01:39:16.709Z,8.00
2018-03-16T01:41:52.087Z,8.00
2018-03-16T01:44:20.113Z,8.00
2018-03-16T01:46:48.743Z,8.10
2018-03-16T01:49:18.291Z,8.10
2018-03-16T01:51:47.145Z,8.10
2018-03-16T01:54:17.172Z,8.20
2018-03-16T01:56:45.304Z,8.20
2018-03-16T01:59:14.210Z,8.20
2018-03-16T02:01:42.045Z,8.20
2018-03-16T02:04:10.193Z,8.20
2018-03-16T02:06:38.196Z,8.20
2018-03-16T02:09:07.808Z,8.20
2018-03-16T02:11:35.614Z,8.10
2018-03-16T02:14:05.264Z,8.10
2018-03-16T02:16:35.832Z,8.10
2018-03-16T02:19:06.238Z,8.10
2018-03-16T02:21:34.812Z,8.10
2018-03-16T02:24:03.493Z,8.10
2018-03-16T02:26:31.166Z,8.20
2018-03-16T02:28:59.579Z,8.10
2018-03-16T02:31:28.469Z,8.10
2018-03-16T02:33:56.972Z,8.10
2018-03-16T02:36:26.025Z,8.10
2018-03-16T02:38:54.040Z,8.10
2018-03-16T02:41:21.753Z,8.20
2018-03-16T02:43:49.434Z,8.10
2018-03-16T02:46:17.762Z,8.00
2018-03-16T02:48:46.141Z,7.90
2018-03-16T02:51:14.284Z,8.00
2018-03-16T02:53:42.148Z,8.10
2018-03-16T02:56:09.915Z,8.00
2018-03-16T02:58:37.644Z,8.00
2018-03-16T03:01:05.383Z,7.90
2018-03-16T03:03:33.061Z,7.90
2018-03-16T03:06:01.019Z,7.90
2018-03-16T03:08:29.046Z,7.80
2018-03-16T03:10:56.857Z,7.70
2018-03-16T03:13:26.103Z,7.80
2018-03-16T03:15:56.042Z,7.80
2018-03-16T03:18:24.750Z,7.70
2018-03-16T03:20:52.532Z,7.70
2018-03-16T03:23:23.483Z,7.70
2018-03-16T03:25:51.871Z,7.70
2018-03-16T03:28:19.672Z,7.80
2018-03-16T03:30:49.622Z,7.80
2018-03-16T03:33:35.439Z,7.90
2018-03-16T03:36:03.150Z,7.90
2018-03-16T03:38:32.072Z,7.90
2018-03-16T03:40:59.775Z,7.90
2018-03-16T03:43:27.791Z,8.00
2018-03-16T03:45:55.749Z,8.00
2018-03-16T03:48:24.634Z,8.00
2018-03-16T03:50:52.720Z,8.00
2018-03-16T03:53:21.360Z,8.00
2018-03-16T03:55:49.463Z,8.10
2018-03-16T03:58:23.021Z,8.00
2018-03-16T04:00:52.433Z,7.90
2018-03-16T04:03:20.938Z,8.00
2018-03-16T04:05:49.033Z,8.00
2018-03-16T04:08:17.682Z,8.00
2018-03-16T04:10:46.457Z,8.00
2018-03-16T04:15:49.351Z,7.90
2018-03-16T04:18:17.261Z,8.00
2018-03-16T04:20:45.159Z,8.10
2018-03-16T04:23:12.963Z,8.10
2018-03-16T04:28:39.576Z,8.20
2018-03-16T04:31:07.253Z,8.10
2018-03-16T04:33:37.782Z,8.10
2018-03-16T04:36:05.490Z,8.00
2018-03-16T04:38:33.187Z,8.00
2018-03-16T04:41:01.224Z,8.00
2018-03-16T04:43:29.794Z,8.10
2018-03-16T04:46:00.335Z,8.00
2018-03-16T04:48:28.802Z,8.00
2018-03-16T04:50:56.582Z,8.10
2018-03-16T04:53:24.433Z,8.20
2018-03-16T04:55:52.222Z,8.20
2018-03-16T04:58:21.580Z,8.10
2018-03-16T05:00:49.395Z,8.00
2018-03-16T05:03:18.965Z,8.00
2018-03-16T05:05:46.738Z,8.10
2018-03-16T05:08:14.656Z,8.20
2018-03-16T05:10:44.206Z,8.20
2018-03-16T05:13:13.315Z,8.30
2018-03-16T05:15:41.044Z,8.20
2018-03-16T05:18:08.941Z,8.20
2018-03-16T05:20:38.549Z,8.30
2018-03-16T05:23:06.659Z,8.30
2018-03-16T05:25:36.168Z,8.30
2018-03-16T05:28:04.714Z,8.20
2018-03-16T05:30:32.750Z,8.10
2018-03-16T05:33:00.508Z,8.20
2018-03-16T05:35:29.426Z,8.30
2018-03-16T05:37:57.314Z,8.20
2018-03-16T05:40:24.938Z,8.40
2018-03-16T05:42:53.638Z,8.50
2018-03-16T05:45:21.344Z,8.50
2018-03-16T05:47:49.152Z,8.50
2018-03-16T05:50:16.836Z,8.50
2018-03-16T05:52:45.145Z,8.50
2018-03-16T05:55:31.453Z,8.50
2018-03-16T05:58:00.719Z,8.50
2018-03-16T06:00:29.512Z,8.60
2018-03-16T06:02:57.863Z,8.60
2018-03-16T06:05:27.799Z,8.60
2018-03-16T06:07:55.662Z,8.60
2018-03-16T06:10:24.437Z,8.70
2018-03-16T06:12:52.448Z,8.70
2018-03-16T06:15:22.969Z,8.90
2018-03-16T06:17:52.463Z,8.60
2018-03-16T06:20:21.744Z,8.60
2018-03-16T06:22:49.626Z,8.70
2018-03-16T06:25:17.362Z,8.70
2018-03-16T06:27:45.197Z,8.60
2018-03-16T06:30:13.775Z,8.70
2018-03-16T06:32:43.531Z,8.70
2018-03-16T06:35:13.154Z,8.70
2018-03-16T06:37:41.987Z,8.70
2018-03-16T06:40:09.795Z,8.70
2018-03-16T06:42:37.840Z,8.60
2018-03-16T06:45:07.792Z,8.70
2018-03-16T06:47:35.873Z,8.70
2018-03-16T06:50:03.800Z,8.70
2018-03-16T06:52:32.384Z,8.70
2018-03-16T06:55:01.064Z,8.70
2018-03-16T06:57:28.736Z,8.80
2018-03-16T06:59:56.436Z,8.70
2018-03-16T07:02:24.163Z,8.70
2018-03-16T07:04:52.877Z,8.60
2018-03-16T07:07:21.615Z,8.60
2018-03-16T07:09:50.151Z,8.70
2018-03-16T07:12:19.784Z,8.70
2018-03-16T07:14:47.454Z,8.70
2018-03-16T07:17:16.377Z,8.70
2018-03-16T07:19:44.713Z,8.80
2018-03-16T07:22:12.649Z,8.80
2018-03-16T07:24:40.663Z,8.80
2018-03-16T07:27:10.217Z,8.90
2018-03-16T07:29:41.002Z,8.90
2018-03-16T07:32:08.906Z,8.90
2018-03-16T07:34:36.763Z,9.00
2018-03-16T07:37:05.971Z,8.90
2018-03-16T07:39:33.789Z,8.90
2018-03-16T07:42:01.861Z,8.80
2018-03-16T07:44:29.762Z,8.90
2018-03-16T07:47:04.496Z,8.80
2018-03-16T07:49:33.538Z,8.80
2018-03-16T07:52:12.310Z,9.00
2018-03-16T07:54:46.345Z,9.10
2018-03-16T08:00:16.315Z,9.30
2018-03-16T08:02:45.150Z,9.10
2018-03-16T08:05:14.444Z,9.10
2018-03-16T08:07:51.532Z,9.10
2018-03-16T08:10:20.315Z,9.20
2018-03-16T08:12:49.317Z,9.20
2018-03-16T08:15:19.363Z,9.20
2018-03-16T08:17:50.245Z,9.30
2018-03-16T08:20:18.474Z,9.30
2018-03-16T08:22:46.352Z,9.30
2018-03-16T08:25:15.896Z,9.40
2018-03-16T08:27:47.677Z,10.50
2018-03-16T08:33:11.359Z,9.50
2018-03-16T08:35:40.694Z,9.70
2018-03-16T08:38:08.721Z,9.80
2018-03-16T08:40:36.513Z,9.70
2018-03-16T08:43:06.331Z,9.80
2018-03-16T08:45:35.082Z,9.90
2018-03-16T08:51:00.582Z,9.70
2018-03-16T08:53:29.006Z,9.70
2018-03-16T08:55:58.031Z,9.80
2018-03-16T08:58:25.991Z,9.80
2018-03-16T09:00:54.790Z,9.90
2018-03-16T09:03:25.175Z,10.00
2018-03-16T09:06:01.651Z,10.10
2018-03-16T09:08:29.432Z,10.10
2018-03-16T09:11:00.441Z,10.20
2018-03-16T09:13:34.342Z,10.10
2018-03-16T09:16:04.586Z,9.90
2018-03-16T09:18:34.990Z,9.90
2018-03-16T09:21:04.890Z,9.90
2018-03-16T09:23:37.374Z,9.90
2018-03-16T09:26:08.967Z,10.00
2018-03-16T09:28:37.294Z,9.80
2018-03-16T09:31:08.372Z,9.70
2018-03-16T09:33:37.115Z,9.70
2018-03-16T09:36:06.565Z,9.70
2018-03-16T09:38:34.450Z,9.90
2018-03-16T09:41:03.506Z,9.80
2018-03-16T09:43:31.314Z,9.90
2018-03-16T09:45:59.193Z,9.80
2018-03-16T09:48:27.949Z,9.80
2018-03-16T09:50:56.656Z,9.90
2018-03-16T09:53:33.523Z,9.90
2018-03-16T09:56:01.549Z,10.00
2018-03-16T09:58:29.557Z,9.90
2018-03-16T10:00:57.311Z,10.00
2018-03-16T10:03:26.534Z,9.90
2018-03-16T10:05:57.001Z,10.10
2018-03-16T10:08:25.664Z,10.00
2018-03-16T10:10:59.379Z,10.00
2018-03-16T10:13:36.198Z,10.10
2018-03-16T10:18:37.593Z,10.10
2018-03-16T10:21:05.822Z,10.10
2018-03-16T10:23:42.766Z,10.30
2018-03-16T10:26:11.775Z,10.30
2018-03-16T10:28:41.226Z,10.40
2018-03-16T10:31:19.717Z,10.40
2018-03-16T10:33:58.723Z,10.40
2018-03-16T10:36:27.755Z,10.30
2018-03-16T10:38:55.604Z,10.30
2018-03-16T10:41:23.764Z,10.30
2018-03-16T10:43:56.687Z,10.30
2018-03-16T10:46:24.482Z,10.30
2018-03-16T10:48:52.250Z,10.10
2018-03-16T10:51:20.094Z,10.10
2018-03-16T10:53:49.405Z,10.20
2018-03-16T10:56:17.233Z,10.10
2018-03-16T10:58:48.026Z,10.20
2018-03-16T11:01:19.745Z,10.30
2018-03-16T11:06:38.333Z,10.40
2018-03-16T11:09:09.138Z,10.40
2018-03-16T11:11:37.573Z,10.50
2018-03-16T11:14:06.038Z,10.80
2018-03-16T11:16:33.742Z,10.80
2018-03-16T11:21:37.387Z,11.20
2018-03-16T11:24:06.452Z,11.40
2018-03-16T11:26:35.261Z,11.70
2018-03-16T11:29:03.034Z,11.70
2018-03-16T11:31:31.694Z,11.90
2018-03-16T11:34:00.158Z,11.90
2018-03-16T11:36:28.766Z,12.10
2018-03-16T11:38:56.832Z,12.10
2018-03-16T11:41:24.638Z,11.80
2018-03-16T11:43:53.947Z,11.80
2018-03-16T11:46:21.945Z,11.60
2018-03-16T11:48:49.858Z,11.60
2018-03-16T11:51:25.115Z,11.60
2018-03-16T11:53:53.831Z,11.50
2018-03-16T11:56:21.601Z,11.60
2018-03-16T11:58:55.822Z,11.70
2018-03-16T12:01:23.817Z,11.80
2018-03-16T12:03:56.099Z,11.80
2018-03-16T12:09:10.921Z,11.70
2018-03-16T12:14:15.685Z,11.60
2018-03-16T12:16:47.454Z,11.50
2018-03-16T12:23:51.807Z,11.20
2018-03-16T12:26:21.016Z,11.00
2018-03-16T12:28:56.483Z,10.90
2018-03-16T12:31:25.640Z,10.90
2018-03-16T12:33:55.320Z,10.90
2018-03-16T12:39:33.209Z,10.80
2018-03-16T12:42:04.320Z,10.70
2018-03-16T12:44:41.833Z,10.70
2018-03-16T12:50:09.279Z,9.80
2018-03-16T12:52:40.979Z,10.70
2018-03-16T12:55:09.967Z,10.70
2018-03-16T12:57:38.897Z,10.60
2018-03-16T13:00:07.479Z,10.40
2018-03-16T13:02:37.564Z,10.30
2018-03-16T13:05:05.446Z,10.20
2018-03-16T13:07:39.801Z,10.10
2018-03-16T13:10:09.858Z,9.70
2018-03-16T13:12:39.833Z,10.10
2018-03-16T13:15:09.498Z,10.00
2018-03-16T13:17:37.249Z,10.00
2018-03-16T13:20:05.117Z,10.00
2018-03-16T13:22:34.614Z,10.10
2018-03-16T13:25:03.402Z,10.30
2018-03-16T13:27:32.067Z,10.30
2018-03-16T13:30:01.302Z,10.40
2018-03-16T13:32:30.447Z,10.60
2018-03-16T13:34:58.201Z,10.70
2018-03-16T13:37:27.866Z,10.70
2018-03-16T13:39:55.823Z,10.70
2018-03-16T13:42:24.350Z,10.80
2018-03-16T13:44:57.370Z,11.00
2018-03-16T13:47:27.169Z,10.90
2018-03-16T13:49:54.954Z,10.90
2018-03-16T13:52:25.361Z,10.90
2018-03-16T13:54:53.452Z,10.90
2018-03-16T13:57:22.457Z,10.70
2018-03-16T13:59:50.185Z,10.50
2018-03-16T14:02:22.871Z,10.40
2018-03-16T14:04:52.185Z,10.40
2018-03-16T14:07:29.984Z,10.40
2018-03-16T14:09:57.923Z,10.30
2018-03-16T14:12:26.384Z,10.30
2018-03-16T14:14:54.816Z,10.30
2018-03-16T14:17:27.814Z,10.30
2018-03-16T14:19:57.062Z,10.40
2018-03-16T14:22:25.662Z,10.50
2018-03-16T14:24:53.354Z,10.60
2018-03-16T14:27:21.190Z,10.80
2018-03-16T14:29:50.316Z,10.90
2018-03-16T14:32:19.116Z,10.90
2018-03-16T14:34:51.447Z,10.90
2018-03-16T14:37:19.340Z,10.90
2018-03-16T14:39:48.288Z,11.00
2018-03-16T14:54:37.521Z,10.80
2018-03-16T14:57:15.420Z,10.30
2018-03-16T14:59:46.609Z,10.30
2018-03-16T15:02:21.768Z,10.30
2018-03-16T15:04:52.608Z,10.20
2018-03-16T15:07:20.633Z,10.20
2018-03-16T15:09:50.582Z,10.20
2018-03-16T15:12:21.393Z,10.20
2018-03-16T15:14:50.416Z,10.30
2018-03-16T15:17:19.245Z,10.30
2018-03-16T15:24:58.401Z,10.40
2018-03-16T15:30:42.443Z,10.20
2018-03-16T15:33:12.345Z,10.20
2018-03-16T15:35:40.181Z,10.20
2018-03-16T15:38:07.911Z,10.20
2018-03-16T15:40:38.326Z,10.20
2018-03-16T15:43:09.786Z,10.10
2018-03-16T15:46:08.272Z,10.10
2018-03-16T15:49:16.272Z,10.10
2018-03-16T15:51:49.769Z,10.00
2018-03-16T15:54:17.752Z,10.00
2018-03-16T15:56:47.484Z,10.00
2018-03-16T15:59:15.337Z,10.00
2018-03-16T16:01:43.285Z,10.20
2018-03-16T16:04:14.553Z,10.10
2018-03-16T16:06:42.699Z,10.00
2018-03-16T16:09:11.300Z,10.10
2018-03-16T16:11:39.916Z,10.10
2018-03-16T16:14:09.991Z,10.10
2018-03-16T16:16:38.880Z,10.10
2018-03-16T16:19:08.144Z,10.10
2018-03-16T16:21:42.189Z,10.10
2018-03-16T16:24:12.531Z,10.00
2018-03-16T16:26:40.663Z,10.00
2018-03-16T16:34:40.998Z,10.00
2018-03-16T16:37:09.902Z,9.90
2018-03-16T16:39:42.205Z,9.80
2018-03-16T16:42:19.121Z,9.70
2018-03-16T16:44:48.669Z,9.60
2018-03-16T16:47:21.467Z,9.60
2018-03-16T16:49:49.415Z,9.50
2018-03-16T16:52:18.572Z,9.50
2018-03-16T16:54:51.375Z,9.40
2018-03-16T16:57:23.411Z,9.50
2018-03-16T16:59:52.278Z,9.40
2018-03-16T17:02:44.726Z,9.30
2018-03-16T17:05:15.398Z,9.30
2018-03-16T17:07:45.055Z,9.20
2018-03-16T17:10:13.711Z,9.30
2018-03-16T17:12:41.485Z,9.30
2018-03-16T17:15:10.034Z,9.20
2018-03-16T17:17:42.884Z,9.20
2018-03-16T17:20:10.789Z,8.90
2018-03-16T17:22:40.971Z,8.90
2018-03-16T17:25:09.513Z,8.90
2018-03-16T17:27:43.761Z,8.80
2018-03-16T17:30:12.246Z,8.60
2018-03-16T17:32:40.081Z,8.60
2018-03-16T17:35:09.108Z,8.60
2018-03-16T17:37:38.318Z,8.60
2018-03-16T17:40:13.211Z,8.60
2018-03-16T17:42:45.358Z,8.60
2018-03-16T17:45:13.277Z,8.60
2018-03-16T17:47:43.214Z,8.50
2018-03-16T17:50:12.414Z,8.40
2018-03-16T17:52:42.410Z,8.30
2018-03-16T17:55:11.084Z,8.20
2018-03-16T17:57:40.984Z,8.30
2018-03-16T18:00:09.880Z,8.30
2018-03-16T18:02:37.608Z,8.40
2018-03-16T18:05:05.362Z,8.40
2018-03-16T18:07:37.650Z,8.40
2018-03-16T18:10:06.638Z,8.40
2018-03-16T18:12:34.562Z,8.20
2018-03-16T18:15:02.587Z,8.10
2018-03-16T18:17:31.851Z,7.90
2018-03-16T18:20:09.409Z,7.90
2018-03-16T18:22:38.364Z,7.90
2018-03-16T18:25:07.884Z,7.80
2018-03-16T18:27:35.790Z,7.80
2018-03-16T18:30:03.705Z,7.70
2018-03-16T18:32:32.686Z,7.60
2018-03-16T18:35:04.879Z,7.50
2018-03-16T18:37:33.600Z,7.50
2018-03-16T18:40:07.188Z,7.50
2018-03-16T18:42:36.447Z,7.50
2018-03-16T18:45:05.623Z,7.40
2018-03-16T18:47:33.564Z,7.40
2018-03-16T18:50:02.360Z,7.20
2018-03-16T18:52:30.287Z,7.20
2018-03-16T18:54:58.469Z,7.20
2018-03-16T18:57:27.153Z,7.00
2018-03-16T18:59:56.552Z,7.00
2018-03-16T19:02:28.031Z,6.90
2018-03-16T19:04:56.308Z,6.90
2018-03-16T19:07:25.321Z,6.90
2018-03-16T19:09:59.715Z,7.00
2018-03-16T19:12:29.633Z,6.90
2018-03-16T19:14:58.517Z,6.90
2018-03-16T19:33:38.359Z,6.90
2018-03-16T19:36:18.284Z,6.40
2018-03-16T19:38:46.407Z,6.30
2018-03-16T19:41:14.552Z,6.40
2018-03-16T19:43:45.737Z,6.30
2018-03-16T19:46:17.387Z,6.30
2018-03-16T19:48:45.273Z,6.20
2018-03-16T19:51:25.768Z,6.20
2018-03-16T19:53:54.967Z,6.20
2018-03-16T19:56:42.102Z,6.20
2018-03-16T19:59:19.820Z,6.10
2018-03-16T20:01:52.391Z,6.10
2018-03-16T20:04:31.691Z,6.20
2018-03-16T20:09:37.066Z,6.20
2018-03-16T20:12:08.203Z,6.10
2018-03-16T20:14:37.118Z,6.10
2018-03-16T20:17:09.077Z,6.10
2018-03-16T20:19:37.233Z,6.10
2018-03-16T20:22:07.082Z,6.00
2018-03-16T20:24:37.587Z,6.00
2018-03-16T20:27:07.323Z,6.00
2018-03-16T20:29:42.513Z,6.00
2018-03-16T20:32:12.073Z,5.90
2018-03-16T20:34:45.229Z,5.90
2018-03-16T20:37:14.195Z,6.20
2018-03-16T20:39:42.879Z,5.80
2018-03-16T20:42:10.726Z,5.80
2018-03-16T20:44:40.443Z,5.90
2018-03-16T20:47:14.825Z,5.80
2018-03-16T20:49:43.400Z,5.90
2018-03-16T20:52:11.533Z,6.00
2018-03-16T20:54:39.553Z,6.00
2018-03-16T20:57:07.523Z,6.00
2018-03-16T20:59:44.897Z,6.10
2018-03-16T21:04:48.550Z,6.10
2018-03-16T21:07:25.101Z,6.10
2018-03-16T21:09:55.374Z,6.00
2018-03-16T21:12:29.903Z,5.70
2018-03-16T21:15:11.232Z,5.80
2018-03-16T21:17:46.783Z,5.70
2018-03-16T21:20:14.499Z,5.60
2018-03-16T21:22:43.003Z,5.60
2018-03-16T21:25:12.670Z,5.60
2018-03-16T21:27:40.679Z,5.60
2018-03-16T21:30:10.715Z,5.80
2018-03-16T21:32:39.297Z,5.80
2018-03-16T21:35:09.077Z,5.70
2018-03-16T21:37:39.454Z,5.60
2018-03-16T21:40:15.145Z,5.60
2018-03-16T21:42:45.358Z,5.30
2018-03-16T21:45:13.139Z,5.30
2018-03-16T21:47:50.975Z,5.30
2018-03-16T21:50:25.001Z,5.30
2018-03-16T21:52:53.754Z,5.40
2018-03-16T21:55:22.000Z,5.50
2018-03-16T21:57:54.221Z,5.40
2018-03-16T22:00:26.292Z,5.30
2018-03-16T22:02:55.371Z,5.30
2018-03-16T22:05:41.613Z,5.10
2018-03-16T22:08:13.448Z,5.00
2018-03-16T22:10:44.738Z,5.00
2018-03-16T22:13:12.562Z,5.00
2018-03-16T22:15:44.812Z,5.20
2018-03-16T22:18:13.991Z,5.10
2018-03-16T22:20:45.154Z,5.00
2018-03-16T22:23:12.988Z,4.80
2018-03-16T22:25:41.550Z,4.90
2018-03-16T22:28:12.784Z,4.80
2018-03-16T22:30:40.611Z,4.80
2018-03-16T22:33:08.347Z,4.80
2018-03-16T22:35:36.206Z,4.80
2018-03-16T22:38:05.733Z,4.50
2018-03-16T22:40:40.989Z,4.50
2018-03-16T22:43:08.850Z,4.60
2018-03-16T22:45:40.464Z,4.60
2018-03-16T22:48:11.838Z,4.50
2018-03-16T22:50:40.390Z,4.40
2018-03-16T22:53:11.398Z,4.30
2018-03-16T22:55:39.438Z,4.30
2018-03-16T22:58:07.255Z,4.40
2018-03-16T23:00:35.052Z,4.40
2018-03-16T23:03:03.929Z,4.40
2018-03-16T23:05:34.690Z,4.40
2018-03-16T23:08:02.559Z,4.40
2018-03-16T23:10:33.571Z,4.50
2018-03-16T23:13:04.599Z,4.40
2018-03-16T23:15:33.591Z,4.40
2018-03-16T23:18:05.156Z,4.50
2018-03-16T23:20:43.400Z,4.50
2018-03-16T23:23:11.789Z,4.40
2018-03-16T23:25:44.303Z,4.40
2018-03-16T23:28:17.334Z,4.20
2018-03-16T23:30:52.242Z,4.30
2018-03-16T23:33:21.066Z,4.40
2018-03-16T23:35:49.877Z,4.30
2018-03-16T23:38:17.804Z,4.30
2018-03-16T23:40:45.728Z,4.30
2018-03-16T23:43:14.108Z,4.20
2018-03-16T23:45:43.280Z,4.10
2018-03-16T23:48:11.089Z,4.30
2018-03-16T23:50:41.414Z,4.20
2018-03-16T23:53:10.232Z,4.20
2018-03-16T23:55:55.937Z,4.30
2018-03-16T23:58:27.975Z,4.20
